Warrensburg, MO (64093)

8:41 AM CST on December 05, 2016 (GMT -0600)
Rolling Hills = Jay's Weather Station | | Change Station
Active Advisory: Dense Fog Advisory

Elev 863 ft 38.73 °N, 93.66 °W | Updated 11 seconds ago

Clear
Clear
32.5 °F
Feels Like 32 °F
N
1.0
Wind Variable Wind from SE

Today
High -- | Low -- °F
--% Chance of Precip.
Yesterday
High -- | Low -- °F
Precip. -- in
Pressure 29.95 in
Visibility 10.0 miles
Clouds Clear
Windchill 32 °F
Dew Point 32 °F
Humidity 98%
Rainfall 0.00 in
Snow Depth Not available.
7:18 AM 4:53 PM
Waxing Crescent, 32% visible
METAR KRCM 051455Z AUTO 15006KT 10SM CLR 00/00 A2995 RMK AO2
Pressure 29.95 in
Visibility 10.0 miles
Clouds Clear
Windchill 32 °F
Dew Point 32 °F
Humidity 98%
Rainfall 0.00 in
Snow Depth Not available.
7:18 AM 4:53 PM
Waxing Crescent, 32% visible
METAR KRCM 051455Z AUTO 15006KT 10SM CLR 00/00 A2995 RMK AO2

10-Day Weather Forecast

Almanac

Astronomy

Dec. 05, 2016 Rise Set
Actual Time
Civil Twilight
Nautical Twilight
Astronomical Twilight
Moon
Length of Visible Light
Length of Day
Tomorrow will be .
, % of the Moon is Illuminated

Today's Extremes

State Highs State Lows

Community

WunderPhotos

Upload Photos

1,955,780 photos uploaded!

WunderBlog® & News

Nearby

Air Quality

  Air Quality AQ Index Pollutant
Not available.

Snow Depth

Station Depth Elevation

Earthquake Activity

City Distance Mag. Time & Date
Minimum magnitude displayed is 2.5.

Coastal Water Temperatures

Place Temperature

Stations

Nearby Weather Stations

Station Location Temp. Windchill Dew Point Humidity Wind Precip. Elev Updated Type
                   

Watches & Warnings

Dense Fog Advisory
Issued: 3:59 AM CST Dec. 5, 2016 – National Weather Service

... Dense fog advisory in effect until 9 am CST this morning...

The National Weather Service in Kansas City/Pleasant Hill has
issued a dense fog advisory... which is in effect until 9 am CST
this morning.

* Visibility... areas of quarter of a mile or less.

* Impacts... fog conditions will lead to reduced visibilities and make
travel difficult during the morning rush hour.

Precautionary/preparedness actions...

A dense fog advisory means visibilities will frequently be
reduced to less than one quarter mile. If driving... slow down...
use your headlights... and leave plenty of distance ahead of you.